sensor_id;sensor_type;location;lat;lon;timestamp;temperature;humidity
15991;DHT22;8100;50.994;4.538;2023-10-08T00:02:00;15.30;1.00
15991;DHT22;8100;50.994;4.538;2023-10-08T00:04:49;15.30;1.00
15991;DHT22;8100;50.994;4.538;2023-10-08T00:07:37;15.30;1.00
15991;DHT22;8100;50.994;4.538;2023-10-08T00:10:28;15.20;1.00
15991;DHT22;8100;50.994;4.538;2023-10-08T00:13:15;15.10;1.00
15991;DHT22;8100;50.994;4.538;2023-10-08T00:16:05;15.00;1.00
15991;DHT22;8100;50.994;4.538;2023-10-08T00:18:55;15.00;1.00
15991;DHT22;8100;50.994;4.538;2023-10-08T00:21:46;15.00;1.00
15991;DHT22;8100;50.994;4.538;2023-10-08T00:24:34;15.00;1.00
15991;DHT22;8100;50.994;4.538;2023-10-08T00:27:21;15.00;1.00
15991;DHT22;8100;50.994;4.538;2023-10-08T00:30:10;14.80;1.00
15991;DHT22;8100;50.994;4.538;2023-10-08T00:33:05;14.80;1.00
15991;DHT22;8100;50.994;4.538;2023-10-08T00:35:54;14.80;1.00
15991;DHT22;8100;50.994;4.538;2023-10-08T00:38:42;14.80;1.00
15991;DHT22;8100;50.994;4.538;2023-10-08T00:41:30;14.90;1.00
15991;DHT22;8100;50.994;4.538;2023-10-08T00:44:19;15.00;1.00
15991;DHT22;8100;50.994;4.538;2023-10-08T00:47:09;15.00;99.90
15991;DHT22;8100;50.994;4.538;2023-10-08T00:49:59;15.00;99.90
15991;DHT22;8100;50.994;4.538;2023-10-08T00:52:54;15.00;99.90
15991;DHT22;8100;50.994;4.538;2023-10-08T00:55:46;14.90;99.90
15991;DHT22;8100;50.994;4.538;2023-10-08T00:58:41;14.90;99.90
15991;DHT22;8100;50.994;4.538;2023-10-08T01:01:31;14.90;99.90
15991;DHT22;8100;50.994;4.538;2023-10-08T01:04:19;15.00;99.90
15991;DHT22;8100;50.994;4.538;2023-10-08T01:07:12;14.90;99.90
15991;DHT22;8100;50.994;4.538;2023-10-08T01:10:01;14.80;99.90
15991;DHT22;8100;50.994;4.538;2023-10-08T01:12:56;14.80;99.90
15991;DHT22;8100;50.994;4.538;2023-10-08T01:16:06;14.80;99.90
15991;DHT22;8100;50.994;4.538;2023-10-08T01:18:55;14.70;99.90
15991;DHT22;8100;50.994;4.538;2023-10-08T01:21:43;14.60;99.90
15991;DHT22;8100;50.994;4.538;2023-10-08T01:24:32;14.60;99.90
15991;DHT22;8100;50.994;4.538;2023-10-08T01:27:20;14.60;99.90
15991;DHT22;8100;50.994;4.538;2023-10-08T01:30:10;14.50;99.90
15991;DHT22;8100;50.994;4.538;2023-10-08T01:33:04;14.50;99.90
15991;DHT22;8100;50.994;4.538;2023-10-08T01:35:54;14.40;99.90
15991;DHT22;8100;50.994;4.538;2023-10-08T01:38:47;14.40;99.90
15991;DHT22;8100;50.994;4.538;2023-10-08T01:41:36;14.40;99.90
15991;DHT22;8100;50.994;4.538;2023-10-08T01:44:26;14.30;99.90
15991;DHT22;8100;50.994;4.538;2023-10-08T01:47:15;14.30;99.90
15991;DHT22;8100;50.994;4.538;2023-10-08T01:50:04;14.30;99.90
15991;DHT22;8100;50.994;4.538;2023-10-08T01:52:58;14.30;1.00
15991;DHT22;8100;50.994;4.538;2023-10-08T01:55:46;14.30;99.90
15991;DHT22;8100;50.994;4.538;2023-10-08T01:58:37;14.30;1.00
15991;DHT22;8100;50.994;4.538;2023-10-08T02:01:24;14.20;1.00
15991;DHT22;8100;50.994;4.538;2023-10-08T02:04:11;14.30;1.00
15991;DHT22;8100;50.994;4.538;2023-10-08T02:06:59;14.30;1.00
15991;DHT22;8100;50.994;4.538;2023-10-08T02:09:46;14.30;1.00
15991;DHT22;8100;50.994;4.538;2023-10-08T02:12:34;14.30;1.00
15991;DHT22;8100;50.994;4.538;2023-10-08T02:15:23;14.30;1.00
15991;DHT22;8100;50.994;4.538;2023-10-08T02:18:10;14.30;1.00
15991;DHT22;8100;50.994;4.538;2023-10-08T02:20:58;14.30;1.00
15991;DHT22;8100;50.994;4.538;2023-10-08T02:23:46;14.20;1.00
15991;DHT22;8100;50.994;4.538;2023-10-08T02:26:34;14.20;99.90
15991;DHT22;8100;50.994;4.538;2023-10-08T02:29:25;14.20;1.00
15991;DHT22;8100;50.994;4.538;2023-10-08T02:32:14;14.30;1.00
15991;DHT22;8100;50.994;4.538;2023-10-08T02:35:01;14.30;1.00
15991;DHT22;8100;50.994;4.538;2023-10-08T02:37:49;14.20;1.00
15991;DHT22;8100;50.994;4.538;2023-10-08T02:40:37;14.30;1.00
15991;DHT22;8100;50.994;4.538;2023-10-08T02:43:30;14.20;99.90
15991;DHT22;8100;50.994;4.538;2023-10-08T02:46:20;14.30;1.00
15991;DHT22;8100;50.994;4.538;2023-10-08T02:49:10;14.30;1.00
15991;DHT22;8100;50.994;4.538;2023-10-08T02:51:58;14.40;1.00
15991;DHT22;8100;50.994;4.538;2023-10-08T02:54:45;14.40;99.90
15991;DHT22;8100;50.994;4.538;2023-10-08T02:57:32;14.30;1.00
15991;DHT22;8100;50.994;4.538;2023-10-08T03:00:21;14.20;1.00
15991;DHT22;8100;50.994;4.538;2023-10-08T03:03:15;14.20;1.00
15991;DHT22;8100;50.994;4.538;2023-10-08T03:06:05;14.20;99.90
15991;DHT22;8100;50.994;4.538;2023-10-08T03:08:57;14.20;1.00
15991;DHT22;8100;50.994;4.538;2023-10-08T03:11:50;14.30;1.00
15991;DHT22;8100;50.994;4.538;2023-10-08T03:14:38;14.40;1.00
15991;DHT22;8100;50.994;4.538;2023-10-08T03:17:35;14.40;1.00
15991;DHT22;8100;50.994;4.538;2023-10-08T03:20:25;14.40;1.00
15991;DHT22;8100;50.994;4.538;2023-10-08T03:23:25;14.40;1.00
15991;DHT22;8100;50.994;4.538;2023-10-08T03:26:19;14.40;1.00
15991;DHT22;8100;50.994;4.538;2023-10-08T03:29:19;14.40;1.00
15991;DHT22;8100;50.994;4.538;2023-10-08T03:32:07;14.40;1.00
15991;DHT22;8100;50.994;4.538;2023-10-08T03:34:59;14.40;1.00
15991;DHT22;8100;50.994;4.538;2023-10-08T03:37:46;14.30;1.00
15991;DHT22;8100;50.994;4.538;2023-10-08T03:40:37;14.30;1.00
15991;DHT22;8100;50.994;4.538;2023-10-08T03:43:29;14.30;1.00
15991;DHT22;8100;50.994;4.538;2023-10-08T03:46:33;14.20;1.00
15991;DHT22;8100;50.994;4.538;2023-10-08T03:49:25;14.30;1.00
15991;DHT22;8100;50.994;4.538;2023-10-08T03:52:13;14.20;1.00
15991;DHT22;8100;50.994;4.538;2023-10-08T03:55:01;14.20;1.00
15991;DHT22;8100;50.994;4.538;2023-10-08T03:58:00;14.30;1.00
15991;DHT22;8100;50.994;4.538;2023-10-08T04:00:50;14.20;1.00
15991;DHT22;8100;50.994;4.538;2023-10-08T04:03:49;14.10;1.00
15991;DHT22;8100;50.994;4.538;2023-10-08T04:06:44;14.00;1.00
15991;DHT22;8100;50.994;4.538;2023-10-08T04:09:35;13.90;1.00
15991;DHT22;8100;50.994;4.538;2023-10-08T04:12:25;13.70;1.00
15991;DHT22;8100;50.994;4.538;2023-10-08T04:15:14;13.60;7.00
15991;DHT22;8100;50.994;4.538;2023-10-08T04:18:02;13.50;23.50
15991;DHT22;8100;50.994;4.538;2023-10-08T04:20:50;13.40;39.20
15991;DHT22;8100;50.994;4.538;2023-10-08T04:23:54;13.30;81.20
15991;DHT22;8100;50.994;4.538;2023-10-08T04:26:43;13.30;99.90
15991;DHT22;8100;50.994;4.538;2023-10-08T04:29:31;13.20;99.90
15991;DHT22;8100;50.994;4.538;2023-10-08T04:32:19;13.10;99.90
15991;DHT22;8100;50.994;4.538;2023-10-08T04:35:10;13.00;99.90
15991;DHT22;8100;50.994;4.538;2023-10-08T04:38:01;13.00;99.90
15991;DHT22;8100;50.994;4.538;2023-10-08T04:40:50;12.90;99.90
15991;DHT22;8100;50.994;4.538;2023-10-08T04:43:38;12.90;99.90
15991;DHT22;8100;50.994;4.538;2023-10-08T04:46:28;12.80;99.90
15991;DHT22;8100;50.994;4.538;2023-10-08T04:49:34;12.70;99.90
15991;DHT22;8100;50.994;4.538;2023-10-08T04:52:24;12.70;99.90
15991;DHT22;8100;50.994;4.538;2023-10-08T04:55:14;12.60;99.90
15991;DHT22;8100;50.994;4.538;2023-10-08T04:58:06;12.60;99.90
15991;DHT22;8100;50.994;4.538;2023-10-08T05:00:58;12.60;99.90
15991;DHT22;8100;50.994;4.538;2023-10-08T05:04:03;12.50;99.90
15991;DHT22;8100;50.994;4.538;2023-10-08T05:07:08;12.50;99.90
15991;DHT22;8100;50.994;4.538;2023-10-08T05:10:07;12.50;99.90
15991;DHT22;8100;50.994;4.538;2023-10-08T05:13:15;12.50;99.90
15991;DHT22;8100;50.994;4.538;2023-10-08T05:16:16;12.40;99.90
15991;DHT22;8100;50.994;4.538;2023-10-08T05:19:21;12.40;99.90
15991;DHT22;8100;50.994;4.538;2023-10-08T05:22:27;12.40;99.90
15991;DHT22;8100;50.994;4.538;2023-10-08T05:25:29;12.40;99.90
15991;DHT22;8100;50.994;4.538;2023-10-08T05:28:26;12.40;99.90
15991;DHT22;8100;50.994;4.538;2023-10-08T05:31:15;12.40;99.90
15991;DHT22;8100;50.994;4.538;2023-10-08T05:34:22;12.40;99.90
15991;DHT22;8100;50.994;4.538;2023-10-08T05:37:18;12.40;99.90
15991;DHT22;8100;50.994;4.538;2023-10-08T05:40:28;12.40;99.90
15991;DHT22;8100;50.994;4.538;2023-10-08T05:43:22;12.40;99.90
15991;DHT22;8100;50.994;4.538;2023-10-08T05:46:29;12.30;99.90
15991;DHT22;8100;50.994;4.538;2023-10-08T05:49:33;12.30;99.90
15991;DHT22;8100;50.994;4.538;2023-10-08T05:52:28;12.20;99.90
15991;DHT22;8100;50.994;4.538;2023-10-08T05:55:28;12.20;99.90
15991;DHT22;8100;50.994;4.538;2023-10-08T05:58:21;12.30;99.90
15991;DHT22;8100;50.994;4.538;2023-10-08T06:01:10;12.30;99.90
15991;DHT22;8100;50.994;4.538;2023-10-08T06:04:12;12.30;99.90
15991;DHT22;8100;50.994;4.538;2023-10-08T06:07:16;12.60;99.90
15991;DHT22;8100;50.994;4.538;2023-10-08T06:10:19;12.70;99.90
15991;DHT22;8100;50.994;4.538;2023-10-08T06:13:29;12.80;99.90
15991;DHT22;8100;50.994;4.538;2023-10-08T06:16:31;12.70;99.90
15991;DHT22;8100;50.994;4.538;2023-10-08T06:19:27;12.80;99.90
15991;DHT22;8100;50.994;4.538;2023-10-08T06:22:13;12.80;99.90
15991;DHT22;8100;50.994;4.538;2023-10-08T06:25:01;13.00;99.90
15991;DHT22;8100;50.994;4.538;2023-10-08T06:28:03;13.00;99.90
15991;DHT22;8100;50.994;4.538;2023-10-08T06:30:56;13.00;99.90
15991;DHT22;8100;50.994;4.538;2023-10-08T06:33:45;13.00;99.90
15991;DHT22;8100;50.994;4.538;2023-10-08T06:36:32;13.10;99.90
15991;DHT22;8100;50.994;4.538;2023-10-08T06:39:20;13.10;99.90
15991;DHT22;8100;50.994;4.538;2023-10-08T06:42:11;13.20;99.90
15991;DHT22;8100;50.994;4.538;2023-10-08T06:45:00;13.20;99.90
15991;DHT22;8100;50.994;4.538;2023-10-08T06:47:48;13.20;99.90
15991;DHT22;8100;50.994;4.538;2023-10-08T06:50:36;13.20;99.90
15991;DHT22;8100;50.994;4.538;2023-10-08T06:53:24;13.30;99.90
15991;DHT22;8100;50.994;4.538;2023-10-08T06:56:11;13.40;99.90
15991;DHT22;8100;50.994;4.538;2023-10-08T06:58:59;13.50;99.90
15991;DHT22;8100;50.994;4.538;2023-10-08T07:01:47;13.60;99.90
15991;DHT22;8100;50.994;4.538;2023-10-08T07:04:38;13.70;99.90
15991;DHT22;8100;50.994;4.538;2023-10-08T07:07:28;13.80;99.90
15991;DHT22;8100;50.994;4.538;2023-10-08T07:10:18;13.80;99.90
15991;DHT22;8100;50.994;4.538;2023-10-08T07:13:06;13.90;99.90
15991;DHT22;8100;50.994;4.538;2023-10-08T07:15:53;14.00;99.90
15991;DHT22;8100;50.994;4.538;2023-10-08T07:18:41;14.10;99.90
15991;DHT22;8100;50.994;4.538;2023-10-08T07:21:35;14.30;99.90
15991;DHT22;8100;50.994;4.538;2023-10-08T07:24:33;14.40;99.90
15991;DHT22;8100;50.994;4.538;2023-10-08T07:27:22;14.50;99.90
15991;DHT22;8100;50.994;4.538;2023-10-08T07:30:18;14.70;99.90
15991;DHT22;8100;50.994;4.538;2023-10-08T07:33:12;14.90;96.20
15991;DHT22;8100;50.994;4.538;2023-10-08T07:36:04;15.10;62.00
15991;DHT22;8100;50.994;4.538;2023-10-08T07:39:01;15.20;31.60
15991;DHT22;8100;50.994;4.538;2023-10-08T07:41:54;15.30;43.20
15991;DHT22;8100;50.994;4.538;2023-10-08T07:44:42;15.30;20.20
15991;DHT22;8100;50.994;4.538;2023-10-08T07:47:30;15.30;38.60
15991;DHT22;8100;50.994;4.538;2023-10-08T07:50:17;15.40;38.50
15991;DHT22;8100;50.994;4.538;2023-10-08T07:53:05;15.50;54.70
15991;DHT22;8100;50.994;4.538;2023-10-08T07:55:54;15.60;26.50
15991;DHT22;8100;50.994;4.538;2023-10-08T07:58:42;15.60;9.30
15991;DHT22;8100;50.994;4.538;2023-10-08T08:01:29;15.70;23.70
15991;DHT22;8100;50.994;4.538;2023-10-08T08:04:19;15.70;34.60
15991;DHT22;8100;50.994;4.538;2023-10-08T08:07:09;15.70;20.80
15991;DHT22;8100;50.994;4.538;2023-10-08T08:10:02;15.80;22.90
15991;DHT22;8100;50.994;4.538;2023-10-08T08:12:58;15.90;47.50
15991;DHT22;8100;50.994;4.538;2023-10-08T08:15:46;16.00;33.00
15991;DHT22;8100;50.994;4.538;2023-10-08T08:18:38;16.10;14.80
15991;DHT22;8100;50.994;4.538;2023-10-08T08:21:27;16.20;6.50
15991;DHT22;8100;50.994;4.538;2023-10-08T08:24:16;16.30;24.60
15991;DHT22;8100;50.994;4.538;2023-10-08T08:27:14;16.40;1.00
15991;DHT22;8100;50.994;4.538;2023-10-08T08:30:15;16.40;1.00
15991;DHT22;8100;50.994;4.538;2023-10-08T08:33:05;16.50;7.80
15991;DHT22;8100;50.994;4.538;2023-10-08T08:36:00;16.70;1.00
15991;DHT22;8100;50.994;4.538;2023-10-08T08:38:47;16.80;1.00
15991;DHT22;8100;50.994;4.538;2023-10-08T08:41:37;17.00;1.00
15991;DHT22;8100;50.994;4.538;2023-10-08T08:44:27;17.00;1.00
15991;DHT22;8100;50.994;4.538;2023-10-08T08:47:17;17.00;1.00
15991;DHT22;8100;50.994;4.538;2023-10-08T08:50:06;17.00;1.00
15991;DHT22;8100;50.994;4.538;2023-10-08T08:52:55;17.20;1.00
15991;DHT22;8100;50.994;4.538;2023-10-08T08:55:44;17.30;1.00
15991;DHT22;8100;50.994;4.538;2023-10-08T08:58:33;17.40;1.00
15991;DHT22;8100;50.994;4.538;2023-10-08T09:01:20;17.40;1.00
15991;DHT22;8100;50.994;4.538;2023-10-08T09:04:09;17.40;1.00
15991;DHT22;8100;50.994;4.538;2023-10-08T09:06:57;17.50;1.00
15991;DHT22;8100;50.994;4.538;2023-10-08T09:09:45;17.50;1.00
15991;DHT22;8100;50.994;4.538;2023-10-08T09:12:35;17.60;1.00
15991;DHT22;8100;50.994;4.538;2023-10-08T09:15:24;17.70;1.00
15991;DHT22;8100;50.994;4.538;2023-10-08T09:18:12;17.80;1.00
15991;DHT22;8100;50.994;4.538;2023-10-08T09:21:12;18.00;1.00
15991;DHT22;8100;50.994;4.538;2023-10-08T09:24:00;18.10;1.00
15991;DHT22;8100;50.994;4.538;2023-10-08T09:26:54;18.10;1.00
15991;DHT22;8100;50.994;4.538;2023-10-08T09:29:44;18.20;1.00
15991;DHT22;8100;50.994;4.538;2023-10-08T09:32:33;18.20;1.00
15991;DHT22;8100;50.994;4.538;2023-10-08T09:35:22;18.30;1.00
15991;DHT22;8100;50.994;4.538;2023-10-08T09:38:12;18.50;1.00
15991;DHT22;8100;50.994;4.538;2023-10-08T09:41:01;18.70;1.00
15991;DHT22;8100;50.994;4.538;2023-10-08T09:43:49;18.70;1.00
15991;DHT22;8100;50.994;4.538;2023-10-08T09:46:37;18.80;1.00
15991;DHT22;8100;50.994;4.538;2023-10-08T09:49:31;18.90;1.00
15991;DHT22;8100;50.994;4.538;2023-10-08T09:52:26;19.00;1.00
15991;DHT22;8100;50.994;4.538;2023-10-08T09:55:17;19.10;1.00
15991;DHT22;8100;50.994;4.538;2023-10-08T09:58:06;19.10;1.00
15991;DHT22;8100;50.994;4.538;2023-10-08T10:00:57;19.10;1.00
15991;DHT22;8100;50.994;4.538;2023-10-08T10:03:45;19.30;1.00
15991;DHT22;8100;50.994;4.538;2023-10-08T10:06:33;19.50;1.00
15991;DHT22;8100;50.994;4.538;2023-10-08T10:09:23;19.60;1.00
15991;DHT22;8100;50.994;4.538;2023-10-08T10:12:17;19.80;1.00
15991;DHT22;8100;50.994;4.538;2023-10-08T10:15:06;20.40;1.00
15991;DHT22;8100;50.994;4.538;2023-10-08T10:17:59;20.70;1.00
15991;DHT22;8100;50.994;4.538;2023-10-08T10:20:58;21.40;99.90
15991;DHT22;8100;50.994;4.538;2023-10-08T10:23:47;21.70;1.00
15991;DHT22;8100;50.994;4.538;2023-10-08T10:26:36;22.30;1.00
15991;DHT22;8100;50.994;4.538;2023-10-08T10:29:27;22.70;1.00
15991;DHT22;8100;50.994;4.538;2023-10-08T10:32:18;22.30;1.00
15991;DHT22;8100;50.994;4.538;2023-10-08T10:35:06;21.70;1.00
15991;DHT22;8100;50.994;4.538;2023-10-08T10:37:59;21.50;1.00
15991;DHT22;8100;50.994;4.538;2023-10-08T10:40:50;21.40;1.00
15991;DHT22;8100;50.994;4.538;2023-10-08T10:43:45;21.10;1.00
15991;DHT22;8100;50.994;4.538;2023-10-08T10:46:41;21.10;1.00
15991;DHT22;8100;50.994;4.538;2023-10-08T10:49:37;21.00;99.90
15991;DHT22;8100;50.994;4.538;2023-10-08T10:52:28;20.70;1.00
15991;DHT22;8100;50.994;4.538;2023-10-08T10:55:20;20.70;1.00
15991;DHT22;8100;50.994;4.538;2023-10-08T10:58:11;20.80;99.90
15991;DHT22;8100;50.994;4.538;2023-10-08T11:01:02;20.90;99.90
15991;DHT22;8100;50.994;4.538;2023-10-08T11:03:56;21.00;99.90
15991;DHT22;8100;50.994;4.538;2023-10-08T11:06:45;21.10;99.90
15991;DHT22;8100;50.994;4.538;2023-10-08T11:09:32;21.20;99.90
15991;DHT22;8100;50.994;4.538;2023-10-08T11:12:25;21.00;1.00
15991;DHT22;8100;50.994;4.538;2023-10-08T11:15:29;21.00;1.00
15991;DHT22;8100;50.994;4.538;2023-10-08T11:18:25;21.00;62.60
15991;DHT22;8100;50.994;4.538;2023-10-08T11:21:15;21.30;99.90
15991;DHT22;8100;50.994;4.538;2023-10-08T11:24:04;21.40;1.00
15991;DHT22;8100;50.994;4.538;2023-10-08T11:26:55;21.40;1.00
15991;DHT22;8100;50.994;4.538;2023-10-08T11:29:52;21.40;1.00
15991;DHT22;8100;50.994;4.538;2023-10-08T11:32:43;21.30;1.00
15991;DHT22;8100;50.994;4.538;2023-10-08T11:35:34;21.50;1.00
15991;DHT22;8100;50.994;4.538;2023-10-08T11:38:23;21.60;1.00
15991;DHT22;8100;50.994;4.538;2023-10-08T11:41:11;21.50;1.00
15991;DHT22;8100;50.994;4.538;2023-10-08T11:44:06;21.50;1.00
15991;DHT22;8100;50.994;4.538;2023-10-08T11:46:59;21.50;1.00
15991;DHT22;8100;50.994;4.538;2023-10-08T11:49:57;21.40;1.00
15991;DHT22;8100;50.994;4.538;2023-10-08T11:52:59;21.50;1.00
15991;DHT22;8100;50.994;4.538;2023-10-08T11:55:52;21.70;1.00
15991;DHT22;8100;50.994;4.538;2023-10-08T11:58:42;21.90;1.00
15991;DHT22;8100;50.994;4.538;2023-10-08T12:01:30;22.00;1.00
15991;DHT22;8100;50.994;4.538;2023-10-08T12:04:21;22.10;1.00
15991;DHT22;8100;50.994;4.538;2023-10-08T12:07:08;22.10;1.00
15991;DHT22;8100;50.994;4.538;2023-10-08T12:09:56;22.00;1.00
15991;DHT22;8100;50.994;4.538;2023-10-08T12:12:44;22.00;1.00
15991;DHT22;8100;50.994;4.538;2023-10-08T12:15:32;22.20;1.00
15991;DHT22;8100;50.994;4.538;2023-10-08T12:18:24;22.10;1.00
15991;DHT22;8100;50.994;4.538;2023-10-08T12:21:11;22.30;1.00
15991;DHT22;8100;50.994;4.538;2023-10-08T12:24:01;22.30;1.00
15991;DHT22;8100;50.994;4.538;2023-10-08T12:26:51;22.20;1.00
15991;DHT22;8100;50.994;4.538;2023-10-08T12:29:39;22.30;1.00
15991;DHT22;8100;50.994;4.538;2023-10-08T12:32:28;22.40;1.00
15991;DHT22;8100;50.994;4.538;2023-10-08T12:35:16;22.60;1.00
15991;DHT22;8100;50.994;4.538;2023-10-08T12:38:06;22.40;1.00
15991;DHT22;8100;50.994;4.538;2023-10-08T12:40:54;22.60;1.00
15991;DHT22;8100;50.994;4.538;2023-10-08T12:43:43;22.70;1.00
15991;DHT22;8100;50.994;4.538;2023-10-08T12:46:33;22.70;1.00
15991;DHT22;8100;50.994;4.538;2023-10-08T12:49:20;22.60;1.00
15991;DHT22;8100;50.994;4.538;2023-10-08T12:52:08;22.40;1.00
15991;DHT22;8100;50.994;4.538;2023-10-08T12:54:57;22.30;1.00
15991;DHT22;8100;50.994;4.538;2023-10-08T12:57:51;22.30;1.00
15991;DHT22;8100;50.994;4.538;2023-10-08T13:00:41;22.40;1.00
15991;DHT22;8100;50.994;4.538;2023-10-08T13:03:30;22.30;1.00
15991;DHT22;8100;50.994;4.538;2023-10-08T13:06:20;22.40;1.00
15991;DHT22;8100;50.994;4.538;2023-10-08T13:09:11;22.60;1.00
15991;DHT22;8100;50.994;4.538;2023-10-08T13:12:00;22.50;1.00
15991;DHT22;8100;50.994;4.538;2023-10-08T13:14:48;22.50;1.00
15991;DHT22;8100;50.994;4.538;2023-10-08T13:17:35;22.50;1.00
15991;DHT22;8100;50.994;4.538;2023-10-08T13:20:24;22.60;1.00
15991;DHT22;8100;50.994;4.538;2023-10-08T13:23:12;22.70;1.00
15991;DHT22;8100;50.994;4.538;2023-10-08T13:25:59;22.60;1.00
15991;DHT22;8100;50.994;4.538;2023-10-08T13:28:50;22.60;1.00
15991;DHT22;8100;50.994;4.538;2023-10-08T13:31:37;22.50;1.00
15991;DHT22;8100;50.994;4.538;2023-10-08T13:34:25;22.40;1.00
15991;DHT22;8100;50.994;4.538;2023-10-08T13:37:14;22.30;1.00
15991;DHT22;8100;50.994;4.538;2023-10-08T13:40:01;22.40;1.00
15991;DHT22;8100;50.994;4.538;2023-10-08T13:42:49;22.40;1.00
15991;DHT22;8100;50.994;4.538;2023-10-08T13:45:38;22.50;1.00
15991;DHT22;8100;50.994;4.538;2023-10-08T13:48:29;22.50;1.00
15991;DHT22;8100;50.994;4.538;2023-10-08T13:51:22;22.60;1.00
15991;DHT22;8100;50.994;4.538;2023-10-08T13:54:14;22.60;1.00
15991;DHT22;8100;50.994;4.538;2023-10-08T13:57:06;22.60;1.00
15991;DHT22;8100;50.994;4.538;2023-10-08T13:59:55;23.00;1.00
15991;DHT22;8100;50.994;4.538;2023-10-08T14:02:47;23.30;1.00
15991;DHT22;8100;50.994;4.538;2023-10-08T14:05:37;23.50;1.00
15991;DHT22;8100;50.994;4.538;2023-10-08T14:08:25;23.30;99.90
15991;DHT22;8100;50.994;4.538;2023-10-08T14:11:16;23.20;1.00
15991;DHT22;8100;50.994;4.538;2023-10-08T14:14:04;23.10;99.90
15991;DHT22;8100;50.994;4.538;2023-10-08T14:16:57;23.30;99.90
15991;DHT22;8100;50.994;4.538;2023-10-08T14:19:49;23.20;1.00
15991;DHT22;8100;50.994;4.538;2023-10-08T14:22:45;23.20;99.90
15991;DHT22;8100;50.994;4.538;2023-10-08T14:25:38;23.10;99.90
15991;DHT22;8100;50.994;4.538;2023-10-08T14:28:32;23.00;1.00
15991;DHT22;8100;50.994;4.538;2023-10-08T14:31:36;22.80;1.00
15991;DHT22;8100;50.994;4.538;2023-10-08T14:34:25;22.80;1.00
15991;DHT22;8100;50.994;4.538;2023-10-08T14:37:36;23.00;1.00
15991;DHT22;8100;50.994;4.538;2023-10-08T14:40:43;23.00;1.00
15991;DHT22;8100;50.994;4.538;2023-10-08T14:43:49;23.00;1.00
15991;DHT22;8100;50.994;4.538;2023-10-08T14:46:38;23.40;1.00
15991;DHT22;8100;50.994;4.538;2023-10-08T14:49:26;23.90;1.00
15991;DHT22;8100;50.994;4.538;2023-10-08T14:52:13;24.20;99.90
15991;DHT22;8100;50.994;4.538;2023-10-08T14:55:00;24.20;99.90
15991;DHT22;8100;50.994;4.538;2023-10-08T14:57:49;23.90;99.90
15991;DHT22;8100;50.994;4.538;2023-10-08T15:00:40;24.00;99.90
15991;DHT22;8100;50.994;4.538;2023-10-08T15:03:28;24.30;99.90
15991;DHT22;8100;50.994;4.538;2023-10-08T15:06:17;24.20;99.90
15991;DHT22;8100;50.994;4.538;2023-10-08T15:09:05;24.10;99.90
15991;DHT22;8100;50.994;4.538;2023-10-08T15:11:54;23.90;99.90
15991;DHT22;8100;50.994;4.538;2023-10-08T15:14:41;23.60;99.90
15991;DHT22;8100;50.994;4.538;2023-10-08T15:17:29;23.60;99.90
15991;DHT22;8100;50.994;4.538;2023-10-08T15:20:20;24.30;99.90
15991;DHT22;8100;50.994;4.538;2023-10-08T15:23:09;24.50;99.90
15991;DHT22;8100;50.994;4.538;2023-10-08T15:25:58;24.90;99.90
15991;DHT22;8100;50.994;4.538;2023-10-08T15:28:45;25.00;99.90
15991;DHT22;8100;50.994;4.538;2023-10-08T15:31:32;24.90;99.90
15991;DHT22;8100;50.994;4.538;2023-10-08T15:34:21;25.40;99.90
15991;DHT22;8100;50.994;4.538;2023-10-08T15:37:09;26.00;99.90
15991;DHT22;8100;50.994;4.538;2023-10-08T15:39:56;25.90;99.90
15991;DHT22;8100;50.994;4.538;2023-10-08T15:42:46;26.00;99.90
15991;DHT22;8100;50.994;4.538;2023-10-08T15:45:34;25.70;99.90
15991;DHT22;8100;50.994;4.538;2023-10-08T15:48:23;25.20;99.90
15991;DHT22;8100;50.994;4.538;2023-10-08T15:51:12;24.60;99.90
15991;DHT22;8100;50.994;4.538;2023-10-08T15:54:00;24.40;99.90
15991;DHT22;8100;50.994;4.538;2023-10-08T15:56:47;24.60;99.90
15991;DHT22;8100;50.994;4.538;2023-10-08T15:59:34;24.70;99.90
15991;DHT22;8100;50.994;4.538;2023-10-08T16:02:23;24.30;99.90
15991;DHT22;8100;50.994;4.538;2023-10-08T16:05:10;23.90;99.90
15991;DHT22;8100;50.994;4.538;2023-10-08T16:07:59;23.60;99.90
15991;DHT22;8100;50.994;4.538;2023-10-08T16:10:46;23.40;99.90
15991;DHT22;8100;50.994;4.538;2023-10-08T16:13:33;23.00;99.90
15991;DHT22;8100;50.994;4.538;2023-10-08T16:16:21;22.70;99.90
15991;DHT22;8100;50.994;4.538;2023-10-08T16:19:08;22.60;99.90
15991;DHT22;8100;50.994;4.538;2023-10-08T16:21:56;22.40;99.90
15991;DHT22;8100;50.994;4.538;2023-10-08T16:24:44;22.20;99.90
15991;DHT22;8100;50.994;4.538;2023-10-08T16:27:32;22.00;99.90
15991;DHT22;8100;50.994;4.538;2023-10-08T16:30:22;21.80;99.90
15991;DHT22;8100;50.994;4.538;2023-10-08T16:33:09;21.70;99.90
15991;DHT22;8100;50.994;4.538;2023-10-08T16:35:58;21.60;99.90
15991;DHT22;8100;50.994;4.538;2023-10-08T16:38:46;21.50;99.90
15991;DHT22;8100;50.994;4.538;2023-10-08T16:41:40;21.30;99.90
15991;DHT22;8100;50.994;4.538;2023-10-08T16:44:27;21.20;99.90
15991;DHT22;8100;50.994;4.538;2023-10-08T16:47:15;21.10;99.90
15991;DHT22;8100;50.994;4.538;2023-10-08T16:50:05;20.90;1.00
15991;DHT22;8100;50.994;4.538;2023-10-08T16:52:52;20.70;1.00
15991;DHT22;8100;50.994;4.538;2023-10-08T16:55:42;20.50;1.00
15991;DHT22;8100;50.994;4.538;2023-10-08T16:58:31;20.30;1.00
15991;DHT22;8100;50.994;4.538;2023-10-08T17:01:18;20.20;99.90
15991;DHT22;8100;50.994;4.538;2023-10-08T17:04:06;20.10;1.00
15991;DHT22;8100;50.994;4.538;2023-10-08T17:06:53;19.90;99.90
15991;DHT22;8100;50.994;4.538;2023-10-08T17:09:42;19.70;99.90
15991;DHT22;8100;50.994;4.538;2023-10-08T17:12:30;19.50;99.90
15991;DHT22;8100;50.994;4.538;2023-10-08T17:15:19;19.40;1.00
15991;DHT22;8100;50.994;4.538;2023-10-08T17:18:07;19.30;1.00
15991;DHT22;8100;50.994;4.538;2023-10-08T17:20:57;19.10;1.00
15991;DHT22;8100;50.994;4.538;2023-10-08T17:23:44;18.90;1.00
15991;DHT22;8100;50.994;4.538;2023-10-08T17:26:32;18.90;1.00
15991;DHT22;8100;50.994;4.538;2023-10-08T17:29:19;18.70;1.00
15991;DHT22;8100;50.994;4.538;2023-10-08T17:32:08;18.60;1.00
15991;DHT22;8100;50.994;4.538;2023-10-08T17:34:55;18.50;1.00
15991;DHT22;8100;50.994;4.538;2023-10-08T17:37:43;18.40;15.10
15991;DHT22;8100;50.994;4.538;2023-10-08T17:40:30;18.30;54.00
15991;DHT22;8100;50.994;4.538;2023-10-08T17:43:17;18.20;97.40
15991;DHT22;8100;50.994;4.538;2023-10-08T17:46:06;18.10;99.90
15991;DHT22;8100;50.994;4.538;2023-10-08T17:48:55;18.10;99.90
15991;DHT22;8100;50.994;4.538;2023-10-08T17:51:42;18.10;99.90
15991;DHT22;8100;50.994;4.538;2023-10-08T17:54:30;17.90;99.90
15991;DHT22;8100;50.994;4.538;2023-10-08T17:57:19;17.90;99.90
15991;DHT22;8100;50.994;4.538;2023-10-08T18:00:07;17.80;99.90
15991;DHT22;8100;50.994;4.538;2023-10-08T18:02:56;17.70;99.90
15991;DHT22;8100;50.994;4.538;2023-10-08T18:05:47;17.70;99.90
15991;DHT22;8100;50.994;4.538;2023-10-08T18:08:39;17.60;99.90
15991;DHT22;8100;50.994;4.538;2023-10-08T18:11:27;17.60;99.90
15991;DHT22;8100;50.994;4.538;2023-10-08T18:14:15;17.50;99.90
15991;DHT22;8100;50.994;4.538;2023-10-08T18:17:05;17.40;99.90
15991;DHT22;8100;50.994;4.538;2023-10-08T18:19:52;17.40;99.90
15991;DHT22;8100;50.994;4.538;2023-10-08T18:22:44;17.40;99.90
15991;DHT22;8100;50.994;4.538;2023-10-08T18:25:31;17.30;99.90
15991;DHT22;8100;50.994;4.538;2023-10-08T18:28:19;17.20;99.90